Aérodrome :
LOGIN :

S'inscrire | Disclaimer

   EN    FR    IT 

 










Légende :    VFR   VFR Marginal   IFR   IFR Intensif   IFR Très Intensif
Visi : 
Plafond : 
>= 8 km
>= 3000ft
5 à 8 km
1000 à 3000 ft
1500m à 5 km
500 à 1000 ft
800 à 1500m
200 à 500 ft
< 800m
< 200 ft
Symboles :   Orages  Brouillard  Fortes neiges  Fortes précipitations  Vent > 20 kt
SIGMETs :   Divers  Orages  Givrage  Turbulence  Onde Orograph.  Cendres Volcan.







- Altitude de l'aérodrome : 1585 ft
- Code IATA : SIR


LSGS - Sion

DERNIER METAR :
  • 251150Z 24006KT 180V330 9999 SCT070 25/09 Q1017

METARs EXPIRÉS :
  • 251120Z 22005KT 170V290 9999 SCT070 24/10 Q1017
  • 251050Z 23004KT 170V280 9999 FEW070 23/10 Q1018
  • 251020Z VRB02KT 9999 FEW070 22/09 Q1018
  • 250950Z VRB03KT 9999 FEW070 21/10 Q1018
  • 250920Z VRB05KT 9999 FEW070 20/10 Q1018

TAF TAF LSGS
Valide du 25 à 12h jusqu'au 25 à 21h UTC


251125Z 2512/2521 25012KT 9999 FEW070
BECMG 2518/2521 VRB03KT CAVOK
Pas de NOTAMs connus pour ce terrain.



MET'MAP, la Météo Aéronautique d'un coup d'oeil ! - Copyright ORBIFLY Décembre 2007 - Disclaimer

ORBIFLY MET'MAP TEAM :

Programmation & Développement : Alexandra Zaïnal
Conception & Développement : Baudouin d'Aumeries
Co-Programmation & Développement : Marc-Olivier Méhu
Soutien technique & logistique : Manuel Goepfert

Contact : metmap@orbifly.com




SOURCES & CREDITS :

   NOAA